Decoded Metar for KPZQ (ROGERS CITY in MI, USA) (IATA:PZQ) | Meteo·Mobile Aviation Weather
aviador You're here:

KPZQ Decoded Metar

ROGERS CITY in MI, USA
Report Time2019-04-23 16:15:00
UTC Time2019-04-23 16:26:25
Flight Rules ifr IFR
Wind300° at 12 Gusting to 15 kt
W.Decomp.*RWY 27: 9.6 kt HW 7.2 kt RCW
Visibility4828 m
Phenomena:Mist
Clouds:Overcast 005 Hf
Ceiling500 ft
Temp04°C (ISA -10)
Dew Point04°C (100% RH)
AAT-1.6°C
QNH1009 hPa
Density Alt-253 ft
Elevation669 ft
Report Wrong Elevation
Raw Report
KPZQ 231615Z AUTO 30012G15KT 3SM BR OVC005 04/04 A2979 RMK AO2
T00440036=

Extra information for KPZQ:More info

Metar Taf Metar & Taf Last 4 Metars F.Rules Stats Wind Profile Meteogram Temp Stats Airport Information Weather charts Add Link Nearby VenuesMetar ALERT Operation Metar Decoded Social comments

AIRNAV info for KPZQ